Time,TemperatureF,DewpointF,PressureIn,WindDirection,WindDirectionDegrees,WindSpeedMPH,WindSpeedGustMPH,Humidity,HourlyPrecipIn,Conditions,Clouds,dailyrainin,SolarRadiationWatts/m^2,SoftwareType,DateUTC
2013-05-15 00:03:00,69.0,55.0,-100.00,SSW,204,4.0,11.0,62,0.00,,,0.00,0.000000,,2013-05-15 04:03:00,
2013-05-15 00:33:00,67.0,55.0,-100.00,SSW,195,2.0,10.0,65,0.00,,,0.00,0.000000,,2013-05-15 04:33:00,
2013-05-15 00:43:00,67.0,55.0,-100.00,SSW,195,2.0,10.0,65,0.00,,,0.00,0.000000,,2013-05-15 04:43:00,
2013-05-15 00:52:00,67.0,55.0,-100.00,SSW,195,2.0,10.0,65,0.00,,,0.00,0.000000,,2013-05-15 04:52:00,
2013-05-15 01:02:00,67.0,55.0,-100.00,SSW,195,2.0,10.0,65,0.00,,,0.00,0.000000,,2013-05-15 05:02:00,
2013-05-15 01:32:00,66.0,55.0,-100.00,SSW,199,4.0,10.0,67,0.00,,,0.00,0.000000,,2013-05-15 05:32:00,
2013-05-15 01:42:00,66.0,55.0,-100.00,SSW,199,4.0,10.0,67,0.00,,,0.00,0.000000,,2013-05-15 05:42:00,
2013-05-15 01:52:00,66.0,55.0,-100.00,SSW,199,4.0,10.0,67,0.00,,,0.00,0.000000,,2013-05-15 05:52:00,
2013-05-15 02:02:00,66.0,55.0,-100.00,SSW,199,4.0,10.0,67,0.00,,,0.00,0.000000,,2013-05-15 06:02:00,
2013-05-15 02:32:00,65.0,55.0,-100.00,SSW,196,0.0,9.0,69,0.00,,,0.00,0.000000,,2013-05-15 06:32:00,
2013-05-15 02:42:00,65.0,55.0,-100.00,SSW,196,0.0,9.0,69,0.00,,,0.00,0.000000,,2013-05-15 06:42:00,
2013-05-15 02:52:00,65.0,55.0,-100.00,SSW,196,0.0,9.0,69,0.00,,,0.00,0.000000,,2013-05-15 06:52:00,
2013-05-15 03:01:00,65.0,55.0,-100.00,SSW,196,0.0,9.0,69,0.00,,,0.00,0.000000,,2013-05-15 07:01:00,
2013-05-15 03:32:00,64.0,54.0,-100.00,SSW,207,1.0,10.0,70,0.00,,,0.00,0.000000,,2013-05-15 07:32:00,
2013-05-15 03:42:00,64.0,54.0,-100.00,SSW,207,1.0,10.0,70,0.00,,,0.00,0.000000,,2013-05-15 07:42:00,
2013-05-15 03:52:00,64.0,54.0,-100.00,SSW,207,1.0,10.0,70,0.00,,,0.00,0.000000,,2013-05-15 07:52:00,
2013-05-15 04:02:00,64.0,54.0,-100.00,SSW,207,1.0,10.0,70,0.00,,,0.00,0.000000,,2013-05-15 08:02:00,
2013-05-15 04:32:00,63.0,55.0,-100.00,SSW,207,3.0,8.0,74,0.00,,,0.00,0.000000,,2013-05-15 08:32:00,
2013-05-15 04:42:00,63.0,55.0,-100.00,SSW,207,3.0,8.0,74,0.00,,,0.00,0.000000,,2013-05-15 08:42:00,
2013-05-15 04:53:00,63.0,55.0,-100.00,SSW,207,3.0,8.0,74,0.00,,,0.00,0.000000,,2013-05-15 08:53:00,
2013-05-15 05:01:00,63.0,55.0,-100.00,SSW,207,3.0,8.0,74,0.00,,,0.00,0.000000,,2013-05-15 09:01:00,
2013-05-15 05:33:00,62.0,54.0,-100.00,SSW,200,3.0,9.0,75,0.00,,,0.00,0.000000,,2013-05-15 09:33:00,
2013-05-15 05:42:00,62.0,54.0,-100.00,SSW,200,3.0,9.0,75,0.00,,,0.00,0.000000,,2013-05-15 09:42:00,
2013-05-15 05:53:00,62.0,54.0,-100.00,SSW,200,3.0,9.0,75,0.00,,,0.00,0.000000,,2013-05-15 09:53:00,
2013-05-15 06:02:00,62.0,54.0,-100.00,SSW,200,3.0,9.0,75,0.00,,,0.00,0.000000,,2013-05-15 10:02:00,
2013-05-15 06:06:00,60.0,54.0,-100.00,SW,227,0.0,8.0,81,0.00,,,0.00,0.000000,,2013-05-15 10:06:00,
2013-05-15 06:32:00,60.0,54.0,-100.00,SW,227,0.0,8.0,81,0.00,,,0.00,0.000000,,2013-05-15 10:32:00,
2013-05-15 06:43:00,60.0,54.0,-100.00,SW,227,0.0,8.0,81,0.00,,,0.00,0.000000,,2013-05-15 10:43:00,
2013-05-15 06:53:00,60.0,54.0,-100.00,SW,227,0.0,8.0,81,0.00,,,0.00,0.000000,,2013-05-15 10:53:00,
2013-05-15 07:40:00,59.0,54.0,-100.00,WNW,303,0.0,6.0,82,0.00,,,0.00,6.000000,,2013-05-15 11:40:00,
2013-05-15 07:50:00,59.0,54.0,-100.00,WNW,303,0.0,6.0,82,0.00,,,0.00,6.000000,,2013-05-15 11:50:00,
2013-05-15 08:01:00,59.0,54.0,-100.00,WNW,303,0.0,6.0,82,0.00,,,0.00,6.000000,,2013-05-15 12:01:00,
2013-05-15 08:06:00,65.0,57.0,-100.00,SW,217,0.0,3.0,76,0.00,,,0.00,99.000000,,2013-05-15 12:06:00,
2013-05-15 08:38:00,65.0,57.0,-100.00,SW,217,0.0,3.0,76,0.00,,,0.00,99.000000,,2013-05-15 12:38:00,
2013-05-15 08:49:00,65.0,57.0,-100.00,SW,217,0.0,3.0,76,0.00,,,0.00,99.000000,,2013-05-15 12:49:00,
2013-05-15 08:58:00,65.0,57.0,-100.00,SW,217,0.0,3.0,76,0.00,,,0.00,99.000000,,2013-05-15 12:58:00,
2013-05-15 10:06:00,74.0,58.0,-100.00,SSW,211,6.0,10.0,57,-99.99,,,0.00,457.000000,,2013-05-15 14:06:00,
2013-05-15 10:39:00,74.0,58.0,-100.00,SSW,211,6.0,10.0,57,-99.99,,,0.00,457.000000,,2013-05-15 14:39:00,
2013-05-15 10:52:00,74.0,58.0,-100.00,SSW,211,6.0,10.0,57,-99.99,,,0.00,457.000000,,2013-05-15 14:52:00,
2013-05-15 11:06:00,77.0,58.0,-100.00,South,177,2.0,10.0,52,0.00,,,0.00,628.000000,,2013-05-15 15:06:00,
2013-05-15 11:40:00,77.0,58.0,-100.00,South,177,2.0,10.0,52,0.00,,,0.00,628.000000,,2013-05-15 15:40:00,
2013-05-15 11:49:00,77.0,58.0,-100.00,South,177,2.0,10.0,52,0.00,,,0.00,628.000000,,2013-05-15 15:49:00,
2013-05-15 12:02:00,77.0,58.0,-100.00,South,177,2.0,10.0,52,0.00,,,0.00,628.000000,,2013-05-15 16:02:00,
2013-05-15 12:06:00,80.0,59.0,-100.00,SSW,207,3.0,10.0,49,0.00,,,0.00,760.000000,,2013-05-15 16:06:00,
2013-05-15 12:52:00,80.0,59.0,-100.00,SSW,207,3.0,10.0,49,0.00,,,0.00,760.000000,,2013-05-15 16:52:00,
2013-05-15 14:06:00,85.0,60.0,-100.00,SW,214,3.0,12.0,43,-99.99,,,0.00,901.000000,,2013-05-15 18:06:00,
2013-05-15 14:38:00,85.0,60.0,-100.00,SW,214,3.0,12.0,43,-99.99,,,0.00,901.000000,,2013-05-15 18:38:00,
2013-05-15 14:49:00,85.0,60.0,-100.00,SW,214,3.0,12.0,43,-99.99,,,0.00,901.000000,,2013-05-15 18:49:00,
2013-05-15 14:58:00,85.0,60.0,-100.00,SW,214,3.0,12.0,43,-99.99,,,0.00,901.000000,,2013-05-15 18:58:00,
2013-05-15 15:06:00,86.0,58.0,-100.00,SW,215,7.0,14.0,39,0.00,,,0.00,884.000000,,2013-05-15 19:06:00,
2013-05-15 15:39:00,86.0,58.0,-100.00,SW,215,7.0,14.0,39,0.00,,,0.00,884.000000,,2013-05-15 19:39:00,
2013-05-15 15:50:00,86.0,58.0,-100.00,SW,215,7.0,14.0,39,0.00,,,0.00,884.000000,,2013-05-15 19:50:00,
2013-05-15 16:06:00,87.0,58.0,-100.00,SSW,196,8.0,13.0,37,0.00,,,0.00,792.000000,,2013-05-15 20:06:00,
2013-05-15 16:40:00,87.0,58.0,-100.00,SSW,196,8.0,13.0,37,0.00,,,0.00,792.000000,,2013-05-15 20:40:00,
2013-05-15 16:47:00,87.0,58.0,-100.00,SSW,196,8.0,13.0,37,0.00,,,0.00,792.000000,,2013-05-15 20:47:00,
2013-05-15 17:06:00,87.0,53.0,-100.00,SSW,212,9.0,15.0,31,0.00,,,-99.99,590.000000,,2013-05-15 21:06:00,
2013-05-15 17:42:00,87.0,53.0,-100.00,SSW,212,9.0,15.0,31,0.00,,,-99.99,590.000000,,2013-05-15 21:42:00,
2013-05-15 18:01:00,87.0,53.0,-100.00,SSW,212,9.0,15.0,31,0.00,,,-99.99,590.000000,,2013-05-15 22:01:00,
2013-05-15 18:42:00,87.0,46.0,-100.00,WSW,246,5.0,14.0,24,0.00,,,0.00,441.000000,,2013-05-15 22:42:00,
2013-05-15 19:06:00,87.0,54.0,-100.00,SW,232,2.0,9.0,32,0.00,,,0.00,267.000000,,2013-05-15 23:06:00,
2013-05-15 19:40:00,87.0,54.0,-100.00,SW,232,2.0,9.0,32,0.00,,,0.00,267.000000,,2013-05-15 23:40:00,
2013-05-15 19:50:00,87.0,54.0,-100.00,SW,232,2.0,9.0,32,0.00,,,0.00,267.000000,,2013-05-15 23:50:00,
2013-05-15 20:01:00,87.0,54.0,-100.00,SW,232,2.0,9.0,32,0.00,,,0.00,267.000000,,2013-05-16 00:01:00,
2013-05-15 21:40:00,68.0,59.0,-100.00,ESE,121,0.0,3.0,73,-99.99,,,0.00,7.000000,,2013-05-16 01:40:00,
2013-05-15 22:40:00,63.0,58.0,-100.00,ESE,111,0.0,2.0,83,0.00,,,0.00,0.000000,,2013-05-16 02:40:00,
2013-05-15 22:49:00,63.0,58.0,-100.00,ESE,111,0.0,2.0,83,0.00,,,0.00,0.000000,,2013-05-16 02:49:00,
2013-05-15 22:56:00,63.0,58.0,-100.00,ESE,111,0.0,2.0,83,0.00,,,0.00,0.000000,,2013-05-16 02:56:00,